Ariccia, Italy

9:47 PM CET on February 10, 2016 (GMT +0100)
Albano Laziale | | Change Station
CLOSE
Current Station
Personal Weather Station
Location: Albano Laziale, LAZIO
Elevation: 1476 ft
Nearby Weather Stations

Elev 1476 ft 41.73 °N, 12.67 °E | Updated 3 minutes ago

Partly Cloudy
Partly Cloudy
44.6 °F
Feels Like 45 °F
N
1.0
Wind Variable Wind from NE
Gusts 4.0 mph

Today
High -- | Low -- °F
--% Chance of Precip.
Yesterday
High -- | Low -- °F
Precip. -- in
Pressure 29.77 in
Visibility 6.2 miles
Clouds Few 4000 ft
Windchill 45 °F
Dew Point 31 °F
Humidity 59%
Rainfall 0.07 in
Snow Depth Not available.
7:12 AM 5:35 PM
Waxing Crescent, 7% visible
METAR LIRA 102020Z 11005KT 9999 FEW040 06/01 Q1008
Pressure 29.77 in
Visibility 6.2 miles
Clouds Few 4000 ft
Windchill 45 °F
Dew Point 31 °F
Humidity 59%
Rainfall 0.07 in
Snow Depth Not available.
7:12 AM 5:35 PM
Waxing Crescent, 7% visible
METAR LIRA 102020Z 11005KT 9999 FEW040 06/01 Q1008

10-Day Weather Forecast

Almanac

Astronomy

Feb. 10, 2016 Rise Set
Actual Time
Civil Twilight
Nautical Twilight
Astronomical Twilight
Moon
Length of Visible Light
Length of Day
Tomorrow will be .
, % of the Moon is Illuminated

Today's Extremes

Country Highs Country Lows

Community

WunderPhotos

Upload Photos

1,891,945 photos uploaded!

WunderBlog® & News

Nearby

Air Quality

  Air Quality AQ Index Pollutant
Not available.

Snow Depth

Station Depth Elevation

Earthquake Activity

City Distance Mag. Time & Date
Minimum magnitude displayed is 2.5.

Coastal Water Temperatures

Place Temperature

Stations

Nearby Weather Stations

Station Location Temp. Windchill Dew Point Humidity Wind Precip. Elev Updated Type